createdAt,value
2022-09-05T00:01:43.249Z,99826.16
2022-09-05T00:04:24.259Z,99824.19
2022-09-05T00:07:11.504Z,99826.97
2022-09-05T00:10:05.731Z,99823.22
2022-09-05T00:12:33.060Z,99837.28
2022-09-05T00:15:15.831Z,99838.78
2022-09-05T00:19:55.986Z,99835.59
2022-09-05T00:24:27.137Z,99839.41
2022-09-05T00:24:28.563Z,99837.47
2022-09-05T00:27:09.191Z,99825.34
2022-09-05T00:31:51.629Z,99830.38
2022-09-05T00:32:56.084Z,99837.03
2022-09-05T00:35:38.634Z,99827.44
2022-09-05T00:38:14.260Z,99820.22
2022-09-05T00:40:50.572Z,99824.34
2022-09-05T00:43:19.572Z,99827.25
2022-09-05T00:45:47.597Z,99825.09
2022-09-05T00:48:17.626Z,99817.22
2022-09-05T00:50:45.047Z,99819.81
2022-09-05T00:53:15.252Z,99823.94
2022-09-05T00:55:48.663Z,99828.91
2022-09-05T00:58:35.856Z,99832.59
2022-09-05T01:01:20.556Z,99828.81
2022-09-05T01:03:53.506Z,99826.06
2022-09-05T01:06:29.441Z,99818.84
2022-09-05T01:09:08.217Z,99819.72
2022-09-05T01:11:38.704Z,99822.31
2022-09-05T01:14:12.733Z,99829.56
2022-09-05T01:16:58.857Z,99816.44
2022-09-05T01:19:35.156Z,99821.66
2022-09-05T01:22:08.241Z,99822.69
2022-09-05T01:24:45.106Z,99818.50
2022-09-05T01:27:40.961Z,99818.56
2022-09-05T01:30:22.649Z,99821.00
2022-09-05T01:33:06.146Z,99817.75
2022-09-05T01:35:33.782Z,99822.00
2022-09-05T01:38:19.641Z,99820.56
2022-09-05T01:40:59.024Z,99819.84
2022-09-05T01:43:57.018Z,99821.31
2022-09-05T01:46:43.449Z,99819.53
2022-09-05T01:49:25.137Z,99815.97
2022-09-05T01:52:08.043Z,99821.88
2022-09-05T01:54:54.251Z,99820.28
2022-09-05T01:57:29.371Z,99817.81
2022-09-05T02:00:17.769Z,99824.75
2022-09-05T02:02:54.128Z,99824.81
2022-09-05T02:05:47.846Z,99818.50
2022-09-05T02:08:14.675Z,99817.47
2022-09-05T02:10:44.883Z,99825.41
2022-09-05T02:13:24.485Z,99819.28
2022-09-05T02:15:59.845Z,99818.50
2022-09-05T02:18:29.759Z,99830.88
2022-09-05T02:20:57.521Z,99822.41
2022-09-05T02:23:41.981Z,99819.88
2022-09-05T02:26:15.507Z,99817.13
2022-09-05T02:28:48.754Z,99824.16
2022-09-05T02:31:27.501Z,99825.16
2022-09-05T02:34:14.924Z,99817.91
2022-09-05T02:36:45.971Z,99817.13
2022-09-05T02:44:39.479Z,99813.53
2022-09-05T02:45:13.045Z,99813.91
2022-09-05T02:45:25.750Z,99823.84
2022-09-05T02:47:57.234Z,99823.06
2022-09-05T02:57:23.937Z,99824.44
2022-09-05T02:57:36.695Z,99827.50
2022-09-05T02:57:40.615Z,99820.28
2022-09-05T02:59:35.957Z,99830.09
2022-09-05T03:02:35.897Z,99830.09
2022-09-05T03:05:09.161Z,99837.69
2022-09-05T03:07:54.794Z,99828.88
2022-09-05T03:10:53.573Z,99828.94
2022-09-05T03:13:27.472Z,99836.88
2022-09-05T03:15:54.833Z,99841.66
2022-09-05T03:18:41.185Z,99840.28
2022-09-05T03:21:24.244Z,99834.91
2022-09-05T03:23:54.917Z,99840.94
2022-09-05T03:26:42.698Z,99837.38
2022-09-05T03:29:18.240Z,99841.03
2022-09-05T03:31:51.733Z,99839.78
2022-09-05T03:34:25.121Z,99838.12
2022-09-05T03:37:06.996Z,99841.81
2022-09-05T03:39:43.449Z,99845.34
2022-09-05T03:42:19.084Z,99844.12
2022-09-05T03:44:49.853Z,99849.50
2022-09-05T03:47:20.353Z,99852.47
2022-09-05T03:55:41.139Z,99852.03
2022-09-05T03:57:27.285Z,99850.00
2022-09-05T03:57:27.547Z,99848.22
2022-09-05T03:59:01.949Z,99859.16
2022-09-05T04:03:10.593Z,99858.28
2022-09-05T04:08:10.000Z,99865.53
2022-09-05T04:08:16.375Z,99862.63
2022-09-05T04:10:04.953Z,99867.81
2022-09-05T04:12:32.261Z,99867.69
2022-09-05T04:15:17.730Z,99866.50
2022-09-05T04:17:49.099Z,99870.97
2022-09-05T04:20:42.378Z,99878.03
2022-09-05T04:23:13.919Z,99885.34
2022-09-05T04:26:11.237Z,99879.84
2022-09-05T04:28:48.700Z,99886.22
2022-09-05T04:31:20.686Z,99890.62
2022-09-05T04:33:57.058Z,99894.03
2022-09-05T04:36:26.585Z,99887.66
2022-09-05T04:39:12.914Z,99893.81
2022-09-05T04:41:41.022Z,99893.69
2022-09-05T04:44:10.792Z,99896.13
2022-09-05T04:46:52.084Z,99892.63
2022-09-05T04:49:33.851Z,99897.44
2022-09-05T04:52:10.168Z,99899.72
2022-09-05T04:54:46.139Z,99908.44
2022-09-05T04:57:15.902Z,99904.16
2022-09-05T05:05:09.000Z,99904.88
2022-09-05T05:06:13.107Z,99907.00
2022-09-05T05:06:17.936Z,99903.75
2022-09-05T05:08:14.359Z,99904.34
2022-09-05T05:17:18.022Z,99899.50
2022-09-05T05:18:11.489Z,99910.25
2022-09-05T05:18:14.830Z,99908.44
2022-09-05T05:19:29.826Z,99907.59
2022-09-05T05:21:58.224Z,99913.91
2022-09-05T05:24:27.757Z,99911.13
2022-09-05T05:26:57.468Z,99911.22
2022-09-05T05:29:27.398Z,99915.00
2022-09-05T05:31:55.565Z,99915.03
2022-09-05T05:34:25.136Z,99912.69
2022-09-05T05:37:18.923Z,99906.28
2022-09-05T05:39:48.325Z,99922.66
2022-09-05T05:42:20.320Z,99917.00
2022-09-05T05:44:49.791Z,99917.19
2022-09-05T05:47:31.380Z,99917.50
2022-09-05T05:50:11.498Z,99919.75
2022-09-05T05:52:39.239Z,99921.31
2022-09-05T05:55:50.573Z,99922.69
2022-09-05T05:58:14.161Z,99920.06
2022-09-05T06:00:51.943Z,99916.75
2022-09-05T06:03:27.584Z,99919.13
2022-09-05T06:05:57.843Z,99926.81
2022-09-05T06:14:52.689Z,99927.16
2022-09-05T06:15:01.625Z,99923.72
2022-09-05T06:15:09.397Z,99924.81
2022-09-05T06:17:46.016Z,99919.94
2022-09-05T06:22:04.440Z,99926.81
2022-09-05T06:23:39.163Z,99934.97
2022-09-05T06:26:12.889Z,99926.59
2022-09-05T06:29:03.293Z,99928.59
2022-09-05T06:31:46.064Z,99935.09
2022-09-05T06:34:33.384Z,99934.75
2022-09-05T06:37:22.351Z,99929.59
2022-09-05T06:40:01.008Z,99933.75
2022-09-05T06:42:42.978Z,99948.75
2022-09-05T06:45:26.922Z,99949.66
2022-09-05T06:47:57.134Z,99941.91
2022-09-05T06:50:27.907Z,99947.75
2022-09-05T06:52:55.517Z,99950.28
2022-09-05T06:55:24.880Z,99953.03
2022-09-05T06:58:10.999Z,99960.56
2022-09-05T07:00:39.012Z,99952.72
2022-09-05T07:03:22.968Z,99961.69
2022-09-05T07:05:55.775Z,99953.91
2022-09-05T07:08:44.394Z,99953.44
2022-09-05T07:11:16.961Z,99956.50
2022-09-05T07:13:48.354Z,99962.63
2022-09-05T07:16:17.426Z,99960.84
2022-09-05T07:19:04.444Z,99959.28
2022-09-05T07:21:40.449Z,99958.41
2022-09-05T07:24:11.757Z,99961.88
2022-09-05T07:26:54.331Z,99967.81
2022-09-05T07:29:35.165Z,99954.53
2022-09-05T07:32:03.498Z,99964.69
2022-09-05T07:34:31.515Z,99954.75
2022-09-05T07:37:15.058Z,99960.22
2022-09-05T07:39:57.529Z,99953.31
2022-09-05T07:42:38.405Z,99955.25
2022-09-05T07:45:08.530Z,99959.03
2022-09-05T07:47:36.596Z,99956.88
2022-09-05T07:54:43.927Z,99968.00
2022-09-05T07:56:51.465Z,99952.16
2022-09-05T07:57:03.848Z,99951.31
2022-09-05T07:58:41.797Z,99956.75
2022-09-05T08:01:10.058Z,99940.91
2022-09-05T08:03:37.535Z,99937.97
2022-09-05T08:06:05.711Z,99950.97
2022-09-05T08:09:00.428Z,99945.56
2022-09-05T08:11:36.219Z,99949.53
2022-09-05T08:14:44.352Z,99948.50
2022-09-05T08:16:55.751Z,99947.41
2022-09-05T08:19:38.276Z,99948.13
2022-09-05T08:22:06.100Z,99962.94
2022-09-05T08:24:37.451Z,99943.94
2022-09-05T08:27:16.692Z,99952.75
2022-09-05T08:30:26.683Z,99950.91
2022-09-05T08:32:53.654Z,99946.78
2022-09-05T08:35:28.136Z,99944.84
2022-09-05T08:37:55.451Z,99950.19
2022-09-05T08:40:27.575Z,99946.78
2022-09-05T08:44:14.965Z,99943.34
2022-09-05T08:46:42.011Z,99945.56
2022-09-05T08:48:39.913Z,99938.53
2022-09-05T08:51:08.830Z,99935.19
2022-09-05T08:53:46.472Z,99938.28
2022-09-05T08:56:24.083Z,99938.00
2022-09-05T08:59:27.913Z,99938.09
2022-09-05T09:02:13.780Z,99933.37
2022-09-05T09:05:01.194Z,99930.56
2022-09-05T09:07:50.751Z,99927.81
2022-09-05T09:10:31.025Z,99922.28
2022-09-05T09:13:06.418Z,99913.00
2022-09-05T09:15:37.951Z,99913.75
2022-09-05T09:18:10.199Z,99915.09
2022-09-05T09:20:45.328Z,99911.50
2022-09-05T09:23:32.420Z,99904.56
2022-09-05T09:26:03.287Z,99914.94
2022-09-05T09:28:50.012Z,99910.37
2022-09-05T09:31:23.534Z,99916.72
2022-09-05T09:33:59.916Z,99917.97
2022-09-05T09:36:42.743Z,99916.78
2022-09-05T09:39:37.835Z,99922.06
2022-09-05T09:42:32.567Z,99926.63
2022-09-05T09:45:22.705Z,99927.22
2022-09-05T09:48:09.952Z,99921.59
2022-09-05T09:50:37.330Z,99921.47
2022-09-05T09:53:16.971Z,99917.44
2022-09-05T09:56:06.690Z,99912.06
2022-09-05T09:58:47.055Z,99909.72
2022-09-05T10:01:35.175Z,99908.22
2022-09-05T10:10:36.482Z,99913.53
2022-09-05T10:10:47.488Z,99910.50
2022-09-05T10:10:53.559Z,99908.28
2022-09-05T10:13:08.570Z,99913.50
2022-09-05T10:15:55.596Z,99907.72
2022-09-05T10:18:24.159Z,99910.88
2022-09-05T10:21:15.481Z,99912.19
2022-09-05T10:23:52.293Z,99909.34
2022-09-05T10:26:31.701Z,99913.31
2022-09-05T10:29:10.173Z,99908.91
2022-09-05T10:34:50.656Z,99899.25
2022-09-05T10:35:17.845Z,99892.41
2022-09-05T10:37:56.779Z,99898.12
2022-09-05T10:40:25.627Z,99889.69
2022-09-05T10:43:00.698Z,99896.22
2022-09-05T10:45:45.530Z,99882.59
2022-09-05T10:48:20.240Z,99882.84
2022-09-05T10:50:54.219Z,99881.88
2022-09-05T10:53:27.074Z,99880.28
2022-09-05T10:56:03.936Z,99869.69
2022-09-05T11:00:56.431Z,99869.97
2022-09-05T11:02:28.439Z,99873.81
2022-09-05T11:04:21.387Z,99869.59
2022-09-05T11:06:49.933Z,99870.66
2022-09-05T11:09:37.640Z,99867.28
2022-09-05T11:12:04.787Z,99867.44
2022-09-05T11:14:38.669Z,99868.03
2022-09-05T11:17:11.414Z,99862.13
2022-09-05T11:19:43.116Z,99862.25
2022-09-05T11:22:22.941Z,99861.47
2022-09-05T11:24:59.011Z,99859.53
2022-09-05T11:27:36.431Z,99855.00
2022-09-05T11:30:08.327Z,99857.16
2022-09-05T11:36:41.540Z,99850.53
2022-09-05T11:39:55.488Z,99847.84
2022-09-05T11:39:55.598Z,99853.44
2022-09-05T11:41:15.538Z,99849.03
2022-09-05T11:43:52.357Z,99848.00
2022-09-05T11:46:37.203Z,99841.16
2022-09-05T11:49:07.514Z,99845.50
2022-09-05T11:51:53.499Z,99841.59
2022-09-05T11:54:35.701Z,99835.72
2022-09-05T11:57:33.261Z,99839.19
2022-09-05T12:00:30.817Z,99831.69
2022-09-05T12:03:01.207Z,99839.56
2022-09-05T12:05:49.648Z,99834.44
2022-09-05T12:08:28.741Z,99831.03
2022-09-05T12:10:59.318Z,99821.22
2022-09-05T12:13:40.546Z,99824.81
2022-09-05T12:16:27.979Z,99823.00
2022-09-05T12:18:56.645Z,99820.97
2022-09-05T12:21:38.955Z,99825.50
2022-09-05T12:25:25.455Z,99822.94
2022-09-05T12:27:38.661Z,99816.59
2022-09-05T12:29:59.501Z,99819.78
2022-09-05T12:33:32.728Z,99816.84
2022-09-05T12:36:10.928Z,99817.41
2022-09-05T12:40:28.614Z,99809.09
2022-09-05T12:41:44.543Z,99813.44
2022-09-05T12:44:38.394Z,99814.25
2022-09-05T12:47:16.724Z,99800.22
2022-09-05T12:50:02.403Z,99803.94
2022-09-05T12:52:32.413Z,99801.34
2022-09-05T12:55:06.123Z,99797.44
2022-09-05T13:02:57.167Z,99794.84
2022-09-05T13:02:58.683Z,99791.47
2022-09-05T13:03:28.879Z,99787.84
2022-09-05T13:06:09.359Z,99787.19
2022-09-05T13:08:44.015Z,99784.03
2022-09-05T13:14:47.918Z,99792.16
2022-09-05T13:14:55.455Z,99786.50
2022-09-05T13:16:55.005Z,99782.41
2022-09-05T13:19:25.447Z,99772.63
2022-09-05T13:21:52.761Z,99775.47
2022-09-05T13:24:27.808Z,99770.84
2022-09-05T13:27:07.673Z,99769.97
2022-09-05T13:29:52.541Z,99773.59
2022-09-05T13:37:59.735Z,99774.84
2022-09-05T13:38:03.700Z,99758.56
2022-09-05T13:41:03.619Z,99768.44
2022-09-05T13:43:38.209Z,99758.91
2022-09-05T13:46:10.903Z,99768.78
2022-09-05T13:51:28.999Z,99757.22
2022-09-05T13:54:06.357Z,99750.84
2022-09-05T13:56:33.536Z,99746.16
2022-09-05T13:59:03.483Z,99745.38
2022-09-05T14:02:26.288Z,99744.13
2022-09-05T14:07:49.745Z,99735.06
2022-09-05T14:10:23.346Z,99740.31
2022-09-05T14:13:14.356Z,99728.63
2022-09-05T14:15:43.530Z,99732.69
2022-09-05T14:18:24.057Z,99728.84
2022-09-05T14:21:17.318Z,99725.22
2022-09-05T14:24:03.421Z,99726.19
2022-09-05T14:26:48.066Z,99726.09
2022-09-05T14:29:16.621Z,99717.50
2022-09-05T14:37:39.113Z,99721.09
2022-09-05T14:37:41.745Z,99713.34
2022-09-05T14:38:15.852Z,99711.34
2022-09-05T14:41:06.722Z,99712.97
2022-09-05T14:43:56.734Z,99715.06
2022-09-05T14:46:50.590Z,99714.69
2022-09-05T14:49:34.557Z,99713.16
2022-09-05T14:52:15.178Z,99710.00
2022-09-05T15:02:42.923Z,99710.81
2022-09-05T15:02:45.356Z,99709.69
2022-09-05T15:03:15.339Z,99712.03
2022-09-05T15:05:46.580Z,99714.62
2022-09-05T15:11:04.873Z,99710.91
2022-09-05T15:12:21.669Z,99700.16
2022-09-05T15:13:58.160Z,99692.84
2022-09-05T15:16:25.734Z,99699.78
2022-09-05T15:18:53.415Z,99692.28
2022-09-05T15:21:30.616Z,99692.66
2022-09-05T15:24:01.824Z,99701.75
2022-09-05T15:26:31.172Z,99694.69
2022-09-05T15:29:13.662Z,99694.25
2022-09-05T15:31:41.985Z,99698.63
2022-09-05T15:34:20.106Z,99692.19
2022-09-05T15:36:47.778Z,99689.91
2022-09-05T15:39:20.993Z,99694.25
2022-09-05T15:41:48.497Z,99695.63
2022-09-05T15:44:19.509Z,99700.34
2022-09-05T15:46:49.208Z,99691.09
2022-09-05T15:49:28.149Z,99691.16
2022-09-05T15:51:57.022Z,99699.47
2022-09-05T15:54:38.742Z,99691.09
2022-09-05T15:57:08.962Z,99689.50
2022-09-05T15:59:49.219Z,99698.06
2022-09-05T16:02:23.557Z,99688.13
2022-09-05T16:10:28.265Z,99684.69
2022-09-05T16:10:36.098Z,99687.81
2022-09-05T16:13:51.915Z,99689.00
2022-09-05T16:23:18.488Z,99678.50
2022-09-05T16:23:23.409Z,99681.44
2022-09-05T16:23:27.397Z,99675.41
2022-09-05T16:24:59.865Z,99672.56
2022-09-05T16:27:36.096Z,99671.53
2022-09-05T16:30:15.452Z,99668.72
2022-09-05T16:32:46.554Z,99671.19
2022-09-05T16:35:18.665Z,99662.72
2022-09-05T16:37:53.045Z,99666.28
2022-09-05T16:40:27.650Z,99660.81
2022-09-05T16:43:00.204Z,99662.19
2022-09-05T16:45:30.662Z,99665.53
2022-09-05T16:48:01.242Z,99664.19
2022-09-05T16:50:40.663Z,99663.22
2022-09-05T16:53:30.515Z,99666.84
2022-09-05T16:56:07.609Z,99674.41
2022-09-05T16:58:39.261Z,99668.75
2022-09-05T17:01:12.714Z,99663.59
2022-09-05T17:03:53.001Z,99666.28
2022-09-05T17:06:26.358Z,99669.25
2022-09-05T17:08:56.812Z,99666.00
2022-09-05T17:12:00.035Z,99663.03
2022-09-05T17:14:31.230Z,99664.84
2022-09-05T17:16:59.276Z,99667.34
2022-09-05T17:19:27.386Z,99674.34
2022-09-05T17:25:11.083Z,99666.09
2022-09-05T17:29:24.595Z,99675.75
2022-09-05T17:29:49.177Z,99674.44
2022-09-05T17:33:44.615Z,99678.63
2022-09-05T17:36:18.497Z,99686.34
2022-09-05T17:39:05.248Z,99680.50
2022-09-05T17:41:35.248Z,99669.91
2022-09-05T17:44:21.557Z,99674.69
2022-09-05T17:46:57.587Z,99672.03
2022-09-05T17:49:40.462Z,99678.88
2022-09-05T17:52:18.139Z,99685.66
2022-09-05T17:54:50.141Z,99689.00
2022-09-05T17:57:26.551Z,99694.47
2022-09-05T17:59:54.994Z,99690.72
2022-09-05T18:02:22.187Z,99702.56
2022-09-05T18:04:53.557Z,99699.28
2022-09-05T18:07:26.899Z,99699.19
2022-09-05T18:10:12.688Z,99709.81
2022-09-05T18:15:32.635Z,99706.28
2022-09-05T18:18:01.075Z,99702.34
2022-09-05T18:20:33.524Z,99702.91
2022-09-05T18:26:09.478Z,99703.03
2022-09-05T18:28:39.923Z,99711.31
2022-09-05T18:31:41.816Z,99710.56
2022-09-05T18:34:12.875Z,99711.97
2022-09-05T18:36:41.498Z,99710.72
2022-09-05T18:39:27.996Z,99707.28
2022-09-05T18:42:33.824Z,99711.75
2022-09-05T18:45:00.051Z,99714.47
2022-09-05T18:47:32.986Z,99729.06
2022-09-05T18:50:26.297Z,99721.53
2022-09-05T18:52:49.578Z,99726.56
2022-09-05T18:56:09.773Z,99724.06
2022-09-05T18:58:11.933Z,99726.44
2022-09-05T19:00:41.701Z,99728.44
2022-09-05T19:03:12.807Z,99718.59
2022-09-05T19:05:56.439Z,99717.56
2022-09-05T19:08:47.096Z,99714.72
2022-09-05T19:11:27.856Z,99711.16
2022-09-05T19:14:12.840Z,99714.28
2022-09-05T19:16:48.065Z,99712.37
2022-09-05T19:19:18.582Z,99708.28
2022-09-05T19:22:48.587Z,99711.00
2022-09-05T19:24:50.221Z,99711.69
2022-09-05T19:28:49.952Z,99705.31
2022-09-05T19:36:56.243Z,99704.66
2022-09-05T19:36:56.313Z,99699.31
2022-09-05T19:37:08.705Z,99702.16
2022-09-05T19:38:34.196Z,99701.88
2022-09-05T19:47:34.370Z,99708.25
2022-09-05T19:47:45.141Z,99707.56
2022-09-05T19:47:48.848Z,99704.09
2022-09-05T19:49:55.455Z,99698.16
2022-09-05T19:52:23.199Z,99695.94
2022-09-05T19:54:51.256Z,99703.03
2022-09-05T19:57:22.530Z,99702.56
2022-09-05T19:59:54.183Z,99699.28
2022-09-05T20:02:25.380Z,99696.28
2022-09-05T20:04:53.703Z,99692.53
2022-09-05T20:07:21.784Z,99697.56
2022-09-05T20:09:49.674Z,99701.00
2022-09-05T20:12:24.322Z,99702.19
2022-09-05T20:14:51.811Z,99700.28
2022-09-05T20:17:21.426Z,99698.97
2022-09-05T20:19:48.728Z,99693.53
2022-09-05T20:22:47.576Z,99688.91
2022-09-05T20:25:19.790Z,99693.84
2022-09-05T20:28:00.575Z,99688.59
2022-09-05T20:30:40.581Z,99681.41
2022-09-05T20:33:14.883Z,99687.19
2022-09-05T20:38:54.628Z,99691.19
2022-09-05T20:43:16.584Z,99688.50
2022-09-05T20:43:17.116Z,99683.53
2022-09-05T20:44:17.203Z,99687.41
2022-09-05T20:52:04.270Z,99694.88
2022-09-05T20:54:15.345Z,99696.16
2022-09-05T20:54:25.428Z,99698.38
2022-09-05T20:55:38.305Z,99690.94
2022-09-05T20:58:15.924Z,99693.38
2022-09-05T21:01:19.628Z,99701.13
2022-09-05T21:03:31.883Z,99697.06
2022-09-05T21:06:12.746Z,99700.59
2022-09-05T21:08:40.754Z,99698.00
2022-09-05T21:11:08.037Z,99698.66
2022-09-05T21:13:35.866Z,99702.75
2022-09-05T21:16:14.645Z,99699.34
2022-09-05T21:18:42.510Z,99700.53
2022-09-05T21:21:29.224Z,99702.69
2022-09-05T21:24:16.410Z,99712.19
2022-09-05T21:26:49.078Z,99706.41
2022-09-05T21:29:17.535Z,99705.38
2022-09-05T21:31:44.856Z,99709.69
2022-09-05T21:34:14.148Z,99710.34
2022-09-05T21:36:41.878Z,99703.09
2022-09-05T21:39:09.040Z,99709.00
2022-09-05T21:41:36.765Z,99707.72
2022-09-05T21:47:37.539Z,99699.94
2022-09-05T21:47:48.870Z,99697.22
2022-09-05T21:49:43.065Z,99698.94
2022-09-05T21:52:13.012Z,99691.03
2022-09-05T21:59:18.012Z,99691.44
2022-09-05T21:59:33.533Z,99692.03
2022-09-05T22:00:20.311Z,99703.97
2022-09-05T22:02:49.549Z,99704.41
2022-09-05T22:05:19.405Z,99706.69
2022-09-05T22:07:48.593Z,99703.97
2022-09-05T22:10:16.016Z,99696.78
2022-09-05T22:12:43.749Z,99699.31
2022-09-05T22:15:28.300Z,99697.06
2022-09-05T22:18:06.350Z,99690.19
2022-09-05T22:20:44.898Z,99694.69
2022-09-05T22:23:12.746Z,99698.25
2022-09-05T22:25:40.537Z,99698.78
2022-09-05T22:28:07.616Z,99697.03
2022-09-05T22:30:38.730Z,99685.72
2022-09-05T22:33:06.085Z,99688.47
2022-09-05T22:35:33.895Z,99690.53
2022-09-05T22:38:01.913Z,99685.28
2022-09-05T22:40:29.773Z,99672.50
2022-09-05T22:42:57.569Z,99679.06
2022-09-05T22:45:25.131Z,99681.13
2022-09-05T22:47:52.535Z,99681.59
2022-09-05T22:50:19.710Z,99686.03
2022-09-05T22:52:47.134Z,99684.72
2022-09-05T22:55:14.325Z,99685.31
2022-09-05T22:57:41.689Z,99682.94
2022-09-05T23:00:09.501Z,99679.84
2022-09-05T23:02:36.734Z,99676.69
2022-09-05T23:05:04.612Z,99674.38
2022-09-05T23:07:32.542Z,99682.00
2022-09-05T23:09:59.710Z,99677.66
2022-09-05T23:12:26.916Z,99681.41
2022-09-05T23:14:54.359Z,99674.72
2022-09-05T23:17:21.524Z,99665.72
2022-09-05T23:19:48.678Z,99665.91
2022-09-05T23:22:16.621Z,99670.12
2022-09-05T23:24:43.780Z,99677.28
2022-09-05T23:27:10.945Z,99667.22
2022-09-05T23:29:38.389Z,99670.66
2022-09-05T23:32:05.546Z,99672.28
2022-09-05T23:34:35.557Z,99664.69
2022-09-05T23:37:03.008Z,99668.56
2022-09-05T23:39:30.214Z,99669.50
2022-09-05T23:41:57.419Z,99659.16
2022-09-05T23:44:25.825Z,99664.72
2022-09-05T23:46:52.964Z,99655.50
2022-09-05T23:49:20.135Z,99658.25
2022-09-05T23:51:47.567Z,99655.00
2022-09-05T23:54:14.736Z,99654.78
2022-09-05T23:56:42.191Z,99654.50
2022-09-05T23:59:11.642Z,99653.16
